Aérodrome :
LOGIN :

S'inscrire | Disclaimer

   EN    FR    IT 

 










Légende :    VFR   VFR Marginal   IFR   IFR Intensif   IFR Très Intensif
Visi : 
Plafond : 
>= 8 km
>= 3000ft
5 à 8 km
1000 à 3000 ft
1500m à 5 km
500 à 1000 ft
800 à 1500m
200 à 500 ft
< 800m
< 200 ft
Symboles :   Orages  Brouillard  Fortes neiges  Fortes précipitations  Vent > 20 kt
SIGMETs :   Divers  Orages  Givrage  Turbulence  Onde Orograph.  Cendres Volcan.






- Altitude de l'aérodrome : 32 ft
- Code IATA : LKZ


EGUL - RAF Lakenheath

DERNIER METAR :
  • 151811Z AUTO 29008KT 9999 FEW018 BKN026 15/10 A2997 RMK AO2 DZE11 CIG 024 RWY06 SLP152 $

METARs EXPIRÉS :
  • 151756Z AUTO 29006KT 9999 -DZ BKN020 15/10 A2997 RMK AO2 DZE09DZB27E44DZB53 SLP152 P0000 60000 T01500102 10179 20150 53005 $
  • 151753Z AUTO 29006KT 9999 -DZ BKN020 15/10 A2997 RMK AO2 DZE09DZB27E44DZB53 SLP152 $
  • 151744Z AUTO 29007KT 9999 BKN020 BKN034 15/10 A2997 RMK AO2 DZE09DZB27E44 SLP152 $
  • 151727Z AUTO 29009KT 9999 -DZ FEW019 BKN034 16/10 A2997 RMK AO2 DZE09DZB27 SLP152 $
  • 151709Z AUTO 29007KT 9999 SCT021 16/10 A2997 RMK AO2 DZE09 SLP152 $
  • 151656Z AUTO 30006KT 9999 -DZ SCT018 SCT034 SCT042 16/10 A2997 RMK AO2 DZB12E15DZB16E39DZB45 SLP152 P0000 T01560097 $
  • 151645Z AUTO 28008KT 9999 -DZ SCT022 BKN043 16/10 A2996 RMK AO2 DZB12E15DZB16E39DZB45 SLP149 $
  • 151636Z AUTO 26006KT 9999 -DZ SCT024 16/10 A2996 RMK AO2 DZB12E15DZB16 SLP149 $
  • 151616Z AUTO 26006KT 9999 -DZ FEW022 16/10 A2996 RMK AO2 DZB12E15DZB16 SLP149 $
  • 151556Z AUTO 24008KT 9999 FEW022 SCT029 16/09 A2996 RMK AO2 DZE1457RAB1457E1458DZB42E54 SLP149 P0000 T01550094 $
  • 151554Z AUTO 24008KT 9999 FEW022 SCT029 16/09 A2996 RMK AO2 DZE1457RAB1457E1458DZB42E54 SLP149 $
  • 151542Z AUTO 27010KT 9999 -DZ SCT022 SCT030 BKN042 16/09 A2996 RMK AO2 DZE1457RAB1457E1458DZB42 SLP149 $

TAF TAF EGUL
Valide du 15 à 14h jusqu'au 16 à 20h UTC


151400Z 1514/1620 27009KT 9999 VCSH BKN020 BKN040 QNH2995INS
TEMPO 1514/1518 8000 -RA BKN009 OVC015
BECMG 1518/1519 29009KT 9999 NSW BKN015 BKN030 QNH2997INS
BECMG 1607/1608 32010G15KT 9999 BKN020 BKN040 QNH3005INS
BECMG 1611/1612 34010G15KT 9999 BKN030 QNH3007INS TX21/1613Z TN14/1605Z LAST NO AMDS AFT 1516 NEXT 1606



MET'MAP, la Météo Aéronautique d'un coup d'oeil ! - Copyright ORBIFLY Décembre 2007 - Disclaimer

ORBIFLY MET'MAP TEAM :

Programmation & Développement : Alexandra Zaïnal
Sur une idée originale de : Baudouin d'Aumeries
Assistance à la programmation : Marc-Olivier Méhu
Soutien technique & logistique : Manuel Goepfert

Contact : metmap@orbifly.com




SOURCES & CREDITS :

   NOAA